sensor_id;sensor_type;location;lat;lon;timestamp;temperature;humidity
20035;DHT22;10178;48.034;9.800;2023-11-19T00:00:21;6.30;99.90
20035;DHT22;10178;48.034;9.800;2023-11-19T00:02:46;6.30;99.90
20035;DHT22;10178;48.034;9.800;2023-11-19T00:05:13;6.40;99.90
20035;DHT22;10178;48.034;9.800;2023-11-19T00:07:39;6.40;99.90
20035;DHT22;10178;48.034;9.800;2023-11-19T00:10:13;6.40;99.90
20035;DHT22;10178;48.034;9.800;2023-11-19T00:12:41;6.40;99.90
20035;DHT22;10178;48.034;9.800;2023-11-19T00:15:07;6.40;99.90
20035;DHT22;10178;48.034;9.800;2023-11-19T00:17:37;6.40;99.90
20035;DHT22;10178;48.034;9.800;2023-11-19T00:20:05;6.50;99.90
20035;DHT22;10178;48.034;9.800;2023-11-19T00:22:31;6.70;99.90
20035;DHT22;10178;48.034;9.800;2023-11-19T00:24:57;6.70;99.90
20035;DHT22;10178;48.034;9.800;2023-11-19T00:27:22;6.70;99.90
20035;DHT22;10178;48.034;9.800;2023-11-19T00:29:48;6.90;99.90
20035;DHT22;10178;48.034;9.800;2023-11-19T00:32:14;6.80;99.90
20035;DHT22;10178;48.034;9.800;2023-11-19T00:34:40;6.70;99.90
20035;DHT22;10178;48.034;9.800;2023-11-19T00:37:06;6.70;99.90
20035;DHT22;10178;48.034;9.800;2023-11-19T00:39:32;6.70;99.90
20035;DHT22;10178;48.034;9.800;2023-11-19T00:41:58;6.60;99.90
20035;DHT22;10178;48.034;9.800;2023-11-19T00:44:23;6.70;99.90
20035;DHT22;10178;48.034;9.800;2023-11-19T00:46:49;6.80;99.90
20035;DHT22;10178;48.034;9.800;2023-11-19T00:49:14;6.90;99.90
20035;DHT22;10178;48.034;9.800;2023-11-19T00:51:40;6.90;99.90
20035;DHT22;10178;48.034;9.800;2023-11-19T00:54:06;7.00;99.90
20035;DHT22;10178;48.034;9.800;2023-11-19T00:56:32;6.90;99.90
20035;DHT22;10178;48.034;9.800;2023-11-19T00:58:57;7.00;99.90
20035;DHT22;10178;48.034;9.800;2023-11-19T01:01:23;6.90;99.90
20035;DHT22;10178;48.034;9.800;2023-11-19T01:03:48;6.80;99.90
20035;DHT22;10178;48.034;9.800;2023-11-19T01:06:14;6.80;99.90
20035;DHT22;10178;48.034;9.800;2023-11-19T01:08:42;6.80;99.90
20035;DHT22;10178;48.034;9.800;2023-11-19T01:11:09;6.70;99.90
20035;DHT22;10178;48.034;9.800;2023-11-19T01:13:34;6.80;99.90
20035;DHT22;10178;48.034;9.800;2023-11-19T01:16:00;6.90;99.90
20035;DHT22;10178;48.034;9.800;2023-11-19T01:18:27;6.90;99.90
20035;DHT22;10178;48.034;9.800;2023-11-19T01:20:53;6.80;99.90
20035;DHT22;10178;48.034;9.800;2023-11-19T01:23:18;6.80;99.90
20035;DHT22;10178;48.034;9.800;2023-11-19T01:25:44;6.70;99.90
20035;DHT22;10178;48.034;9.800;2023-11-19T01:28:09;6.80;99.90
20035;DHT22;10178;48.034;9.800;2023-11-19T01:30:35;6.80;99.90
20035;DHT22;10178;48.034;9.800;2023-11-19T01:33:01;6.80;99.90
20035;DHT22;10178;48.034;9.800;2023-11-19T01:35:26;6.90;99.90
20035;DHT22;10178;48.034;9.800;2023-11-19T01:37:52;6.80;99.90
20035;DHT22;10178;48.034;9.800;2023-11-19T01:40:21;6.80;99.90
20035;DHT22;10178;48.034;9.800;2023-11-19T01:42:47;6.80;99.90
20035;DHT22;10178;48.034;9.800;2023-11-19T01:45:22;6.90;99.90
20035;DHT22;10178;48.034;9.800;2023-11-19T01:47:52;7.00;99.90
20035;DHT22;10178;48.034;9.800;2023-11-19T01:50:17;7.10;99.90
20035;DHT22;10178;48.034;9.800;2023-11-19T01:52:45;7.20;99.90
20035;DHT22;10178;48.034;9.800;2023-11-19T01:55:11;7.20;99.90
20035;DHT22;10178;48.034;9.800;2023-11-19T01:57:37;7.20;99.90
20035;DHT22;10178;48.034;9.800;2023-11-19T02:00:04;7.20;99.90
20035;DHT22;10178;48.034;9.800;2023-11-19T02:02:30;7.20;99.90
20035;DHT22;10178;48.034;9.800;2023-11-19T02:04:56;7.10;99.90
20035;DHT22;10178;48.034;9.800;2023-11-19T02:07:22;7.10;99.90
20035;DHT22;10178;48.034;9.800;2023-11-19T02:09:49;7.20;99.90
20035;DHT22;10178;48.034;9.800;2023-11-19T02:12:15;7.10;99.90
20035;DHT22;10178;48.034;9.800;2023-11-19T02:14:40;7.10;99.90
20035;DHT22;10178;48.034;9.800;2023-11-19T02:17:06;7.10;99.90
20035;DHT22;10178;48.034;9.800;2023-11-19T02:19:32;7.10;99.90
20035;DHT22;10178;48.034;9.800;2023-11-19T02:21:57;7.10;99.90
20035;DHT22;10178;48.034;9.800;2023-11-19T02:24:25;7.10;99.90
20035;DHT22;10178;48.034;9.800;2023-11-19T02:27:01;7.20;99.90
20035;DHT22;10178;48.034;9.800;2023-11-19T02:29:27;7.30;99.90
20035;DHT22;10178;48.034;9.800;2023-11-19T02:31:53;7.20;99.90
20035;DHT22;10178;48.034;9.800;2023-11-19T02:34:20;7.20;99.90
20035;DHT22;10178;48.034;9.800;2023-11-19T02:36:47;7.30;99.90
20035;DHT22;10178;48.034;9.800;2023-11-19T02:39:12;7.30;99.90
20035;DHT22;10178;48.034;9.800;2023-11-19T02:41:39;7.30;99.90
20035;DHT22;10178;48.034;9.800;2023-11-19T02:44:06;7.30;99.90
20035;DHT22;10178;48.034;9.800;2023-11-19T02:46:31;7.30;99.90
20035;DHT22;10178;48.034;9.800;2023-11-19T02:48:57;7.30;99.90
20035;DHT22;10178;48.034;9.800;2023-11-19T02:51:23;7.30;99.90
20035;DHT22;10178;48.034;9.800;2023-11-19T02:53:49;7.30;99.90
20035;DHT22;10178;48.034;9.800;2023-11-19T02:56:14;7.40;99.90
20035;DHT22;10178;48.034;9.800;2023-11-19T02:58:50;7.30;99.90
20035;DHT22;10178;48.034;9.800;2023-11-19T03:01:22;7.30;99.90
20035;DHT22;10178;48.034;9.800;2023-11-19T03:04:00;7.40;99.90
20035;DHT22;10178;48.034;9.800;2023-11-19T03:06:26;7.30;99.90
20035;DHT22;10178;48.034;9.800;2023-11-19T03:08:54;7.30;99.90
20035;DHT22;10178;48.034;9.800;2023-11-19T03:11:19;7.30;99.90
20035;DHT22;10178;48.034;9.800;2023-11-19T03:13:45;7.30;99.90
20035;DHT22;10178;48.034;9.800;2023-11-19T03:16:12;7.30;99.90
20035;DHT22;10178;48.034;9.800;2023-11-19T03:18:38;7.40;99.90
20035;DHT22;10178;48.034;9.800;2023-11-19T03:21:06;7.30;99.90
20035;DHT22;10178;48.034;9.800;2023-11-19T03:23:31;7.40;99.90
20035;DHT22;10178;48.034;9.800;2023-11-19T03:25:57;7.40;99.90
20035;DHT22;10178;48.034;9.800;2023-11-19T03:28:22;7.40;99.90
20035;DHT22;10178;48.034;9.800;2023-11-19T03:30:48;7.50;99.90
20035;DHT22;10178;48.034;9.800;2023-11-19T03:33:14;7.50;99.90
20035;DHT22;10178;48.034;9.800;2023-11-19T03:35:39;7.50;99.90
20035;DHT22;10178;48.034;9.800;2023-11-19T03:38:06;7.60;99.90
20035;DHT22;10178;48.034;9.800;2023-11-19T03:40:32;7.60;99.90
20035;DHT22;10178;48.034;9.800;2023-11-19T03:42:57;7.60;99.90
20035;DHT22;10178;48.034;9.800;2023-11-19T03:45:24;7.50;99.90
20035;DHT22;10178;48.034;9.800;2023-11-19T03:47:50;7.50;99.90
20035;DHT22;10178;48.034;9.800;2023-11-19T03:50:16;7.50;99.90
20035;DHT22;10178;48.034;9.800;2023-11-19T03:52:42;7.50;99.90
20035;DHT22;10178;48.034;9.800;2023-11-19T03:55:08;7.50;99.90
20035;DHT22;10178;48.034;9.800;2023-11-19T03:57:34;7.50;99.90
20035;DHT22;10178;48.034;9.800;2023-11-19T04:00:00;7.50;99.90
20035;DHT22;10178;48.034;9.800;2023-11-19T04:02:32;7.50;99.90
20035;DHT22;10178;48.034;9.800;2023-11-19T04:04:57;7.60;99.90
20035;DHT22;10178;48.034;9.800;2023-11-19T04:07:23;7.70;99.90
20035;DHT22;10178;48.034;9.800;2023-11-19T04:09:49;7.60;99.90
20035;DHT22;10178;48.034;9.800;2023-11-19T04:12:14;7.70;99.90
20035;DHT22;10178;48.034;9.800;2023-11-19T04:14:40;7.70;99.90
20035;DHT22;10178;48.034;9.800;2023-11-19T04:17:06;7.70;99.90
20035;DHT22;10178;48.034;9.800;2023-11-19T04:19:31;7.70;99.90
20035;DHT22;10178;48.034;9.800;2023-11-19T04:21:58;7.60;99.90
20035;DHT22;10178;48.034;9.800;2023-11-19T04:24:23;7.60;99.90
20035;DHT22;10178;48.034;9.800;2023-11-19T04:26:49;7.60;99.90
20035;DHT22;10178;48.034;9.800;2023-11-19T04:29:16;7.60;99.90
20035;DHT22;10178;48.034;9.800;2023-11-19T04:31:43;7.70;99.90
20035;DHT22;10178;48.034;9.800;2023-11-19T04:34:12;7.70;99.90
20035;DHT22;10178;48.034;9.800;2023-11-19T04:36:38;7.80;99.90
20035;DHT22;10178;48.034;9.800;2023-11-19T04:39:04;7.80;99.90
20035;DHT22;10178;48.034;9.800;2023-11-19T04:41:51;7.80;99.90
20035;DHT22;10178;48.034;9.800;2023-11-19T04:44:19;7.80;99.90
20035;DHT22;10178;48.034;9.800;2023-11-19T04:46:45;7.90;99.90
20035;DHT22;10178;48.034;9.800;2023-11-19T04:49:12;7.90;99.90
20035;DHT22;10178;48.034;9.800;2023-11-19T04:51:41;7.90;99.90
20035;DHT22;10178;48.034;9.800;2023-11-19T04:54:08;7.90;99.90
20035;DHT22;10178;48.034;9.800;2023-11-19T04:56:35;7.90;99.90
20035;DHT22;10178;48.034;9.800;2023-11-19T04:59:02;7.80;99.90
20035;DHT22;10178;48.034;9.800;2023-11-19T05:01:28;7.90;99.90
20035;DHT22;10178;48.034;9.800;2023-11-19T05:03:53;7.90;99.90
20035;DHT22;10178;48.034;9.800;2023-11-19T05:06:19;7.90;99.90
20035;DHT22;10178;48.034;9.800;2023-11-19T05:08:46;7.90;99.90
20035;DHT22;10178;48.034;9.800;2023-11-19T05:11:11;7.90;99.90
20035;DHT22;10178;48.034;9.800;2023-11-19T05:13:43;7.90;99.90
20035;DHT22;10178;48.034;9.800;2023-11-19T05:16:11;7.90;99.90
20035;DHT22;10178;48.034;9.800;2023-11-19T05:18:39;7.90;99.90
20035;DHT22;10178;48.034;9.800;2023-11-19T05:21:05;7.90;99.90
20035;DHT22;10178;48.034;9.800;2023-11-19T05:23:32;7.90;99.90
20035;DHT22;10178;48.034;9.800;2023-11-19T05:25:59;8.00;99.90
20035;DHT22;10178;48.034;9.800;2023-11-19T05:28:25;7.90;99.90
20035;DHT22;10178;48.034;9.800;2023-11-19T05:30:51;7.90;99.90
20035;DHT22;10178;48.034;9.800;2023-11-19T05:33:17;7.90;99.90
20035;DHT22;10178;48.034;9.800;2023-11-19T05:35:43;8.00;99.90
20035;DHT22;10178;48.034;9.800;2023-11-19T05:38:08;8.00;99.90
20035;DHT22;10178;48.034;9.800;2023-11-19T05:40:35;8.00;99.90
20035;DHT22;10178;48.034;9.800;2023-11-19T05:43:01;8.10;99.90
20035;DHT22;10178;48.034;9.800;2023-11-19T05:45:26;8.10;99.90
20035;DHT22;10178;48.034;9.800;2023-11-19T05:47:52;8.00;99.90
20035;DHT22;10178;48.034;9.800;2023-11-19T05:50:18;8.00;99.90
20035;DHT22;10178;48.034;9.800;2023-11-19T05:52:44;8.00;99.90
20035;DHT22;10178;48.034;9.800;2023-11-19T05:55:09;8.00;99.90
20035;DHT22;10178;48.034;9.800;2023-11-19T05:57:38;8.00;99.90
20035;DHT22;10178;48.034;9.800;2023-11-19T06:00:06;8.00;99.90
20035;DHT22;10178;48.034;9.800;2023-11-19T06:02:34;8.10;99.90
20035;DHT22;10178;48.034;9.800;2023-11-19T06:05:00;8.10;99.90
20035;DHT22;10178;48.034;9.800;2023-11-19T06:07:26;8.20;99.90
20035;DHT22;10178;48.034;9.800;2023-11-19T06:09:52;8.20;99.90
20035;DHT22;10178;48.034;9.800;2023-11-19T06:12:18;8.10;99.90
20035;DHT22;10178;48.034;9.800;2023-11-19T06:14:43;8.20;99.90
20035;DHT22;10178;48.034;9.800;2023-11-19T06:17:09;8.30;99.90
20035;DHT22;10178;48.034;9.800;2023-11-19T06:19:37;8.20;99.90
20035;DHT22;10178;48.034;9.800;2023-11-19T06:22:03;8.20;99.90
20035;DHT22;10178;48.034;9.800;2023-11-19T06:24:29;8.30;99.90
20035;DHT22;10178;48.034;9.800;2023-11-19T06:26:55;8.30;99.90
20035;DHT22;10178;48.034;9.800;2023-11-19T06:29:21;8.30;99.90
20035;DHT22;10178;48.034;9.800;2023-11-19T06:31:46;8.30;99.90
20035;DHT22;10178;48.034;9.800;2023-11-19T06:34:14;8.30;99.90
20035;DHT22;10178;48.034;9.800;2023-11-19T06:36:40;8.40;99.90
20035;DHT22;10178;48.034;9.800;2023-11-19T06:39:06;8.40;99.90
20035;DHT22;10178;48.034;9.800;2023-11-19T06:41:32;8.40;99.90
20035;DHT22;10178;48.034;9.800;2023-11-19T06:43:57;8.40;99.90
20035;DHT22;10178;48.034;9.800;2023-11-19T06:46:23;8.40;99.90
20035;DHT22;10178;48.034;9.800;2023-11-19T06:48:48;8.40;99.90
20035;DHT22;10178;48.034;9.800;2023-11-19T06:51:15;8.50;99.90
20035;DHT22;10178;48.034;9.800;2023-11-19T06:53:42;8.50;99.90
20035;DHT22;10178;48.034;9.800;2023-11-19T06:56:23;8.50;99.90
20035;DHT22;10178;48.034;9.800;2023-11-19T06:58:50;8.60;99.90
20035;DHT22;10178;48.034;9.800;2023-11-19T07:01:16;8.60;99.90
20035;DHT22;10178;48.034;9.800;2023-11-19T07:03:46;8.60;99.90
20035;DHT22;10178;48.034;9.800;2023-11-19T07:06:12;8.60;99.90
20035;DHT22;10178;48.034;9.800;2023-11-19T07:08:44;8.50;99.90
20035;DHT22;10178;48.034;9.800;2023-11-19T07:11:13;8.60;99.90
20035;DHT22;10178;48.034;9.800;2023-11-19T07:13:42;8.60;99.90
20035;DHT22;10178;48.034;9.800;2023-11-19T07:16:08;8.60;99.90
20035;DHT22;10178;48.034;9.800;2023-11-19T07:18:36;8.70;99.90
20035;DHT22;10178;48.034;9.800;2023-11-19T07:21:03;8.60;99.90
20035;DHT22;10178;48.034;9.800;2023-11-19T07:23:29;8.70;99.90
20035;DHT22;10178;48.034;9.800;2023-11-19T07:25:55;8.80;99.90
20035;DHT22;10178;48.034;9.800;2023-11-19T07:28:20;8.80;99.90
20035;DHT22;10178;48.034;9.800;2023-11-19T07:30:46;8.80;99.90
20035;DHT22;10178;48.034;9.800;2023-11-19T07:33:12;8.80;99.90
20035;DHT22;10178;48.034;9.800;2023-11-19T07:35:39;8.90;99.90
20035;DHT22;10178;48.034;9.800;2023-11-19T07:38:06;8.90;99.90
20035;DHT22;10178;48.034;9.800;2023-11-19T07:40:32;8.80;99.90
20035;DHT22;10178;48.034;9.800;2023-11-19T07:42:58;8.90;99.90
20035;DHT22;10178;48.034;9.800;2023-11-19T07:45:23;8.80;99.90
20035;DHT22;10178;48.034;9.800;2023-11-19T07:47:49;8.80;99.90
20035;DHT22;10178;48.034;9.800;2023-11-19T07:50:16;8.80;99.90
20035;DHT22;10178;48.034;9.800;2023-11-19T07:52:44;8.90;99.90
20035;DHT22;10178;48.034;9.800;2023-11-19T07:55:10;8.80;99.90
20035;DHT22;10178;48.034;9.800;2023-11-19T07:57:36;8.80;99.90
20035;DHT22;10178;48.034;9.800;2023-11-19T08:00:02;8.90;99.90
20035;DHT22;10178;48.034;9.800;2023-11-19T08:02:28;9.00;99.90
20035;DHT22;10178;48.034;9.800;2023-11-19T08:04:54;9.00;99.90
20035;DHT22;10178;48.034;9.800;2023-11-19T08:07:21;8.90;99.90
20035;DHT22;10178;48.034;9.800;2023-11-19T08:09:46;9.00;99.90
20035;DHT22;10178;48.034;9.800;2023-11-19T08:12:12;9.00;99.90
20035;DHT22;10178;48.034;9.800;2023-11-19T08:14:40;9.10;99.90
20035;DHT22;10178;48.034;9.800;2023-11-19T08:17:05;9.10;99.90
20035;DHT22;10178;48.034;9.800;2023-11-19T08:19:32;9.10;99.90
20035;DHT22;10178;48.034;9.800;2023-11-19T08:21:57;9.00;99.90
20035;DHT22;10178;48.034;9.800;2023-11-19T08:24:23;9.10;99.90
20035;DHT22;10178;48.034;9.800;2023-11-19T08:26:48;9.10;99.90
20035;DHT22;10178;48.034;9.800;2023-11-19T08:29:14;9.10;99.90
20035;DHT22;10178;48.034;9.800;2023-11-19T08:31:40;9.10;99.90
20035;DHT22;10178;48.034;9.800;2023-11-19T08:34:06;9.30;99.90
20035;DHT22;10178;48.034;9.800;2023-11-19T08:36:34;9.30;99.90
20035;DHT22;10178;48.034;9.800;2023-11-19T08:39:00;9.20;99.90
20035;DHT22;10178;48.034;9.800;2023-11-19T08:41:25;9.30;99.90
20035;DHT22;10178;48.034;9.800;2023-11-19T08:43:51;9.20;99.90
20035;DHT22;10178;48.034;9.800;2023-11-19T08:46:17;9.40;99.90
20035;DHT22;10178;48.034;9.800;2023-11-19T08:48:43;9.60;99.90
20035;DHT22;10178;48.034;9.800;2023-11-19T08:51:08;9.50;99.90
20035;DHT22;10178;48.034;9.800;2023-11-19T08:53:35;9.50;99.90
20035;DHT22;10178;48.034;9.800;2023-11-19T08:59:01;9.70;99.90
20035;DHT22;10178;48.034;9.800;2023-11-19T09:01:59;9.90;99.90
20035;DHT22;10178;48.034;9.800;2023-11-19T09:04:24;9.90;99.90
20035;DHT22;10178;48.034;9.800;2023-11-19T09:11:29;9.90;99.90
20035;DHT22;10178;48.034;9.800;2023-11-19T09:15:19;9.80;99.90
20035;DHT22;10178;48.034;9.800;2023-11-19T09:17:44;9.90;99.90
20035;DHT22;10178;48.034;9.800;2023-11-19T09:20:11;9.90;99.90
20035;DHT22;10178;48.034;9.800;2023-11-19T09:22:40;9.90;99.90
20035;DHT22;10178;48.034;9.800;2023-11-19T09:25:06;9.80;99.90
20035;DHT22;10178;48.034;9.800;2023-11-19T09:27:32;9.80;99.90
20035;DHT22;10178;48.034;9.800;2023-11-19T09:29:57;9.90;99.90
20035;DHT22;10178;48.034;9.800;2023-11-19T09:32:24;10.00;99.90
20035;DHT22;10178;48.034;9.800;2023-11-19T09:34:50;9.90;99.90
20035;DHT22;10178;48.034;9.800;2023-11-19T09:37:16;9.80;99.90
20035;DHT22;10178;48.034;9.800;2023-11-19T09:39:42;9.90;99.90
20035;DHT22;10178;48.034;9.800;2023-11-19T09:42:10;9.80;99.90
20035;DHT22;10178;48.034;9.800;2023-11-19T09:44:38;9.90;99.90
20035;DHT22;10178;48.034;9.800;2023-11-19T09:47:05;9.90;99.90
20035;DHT22;10178;48.034;9.800;2023-11-19T09:49:33;9.80;99.90
20035;DHT22;10178;48.034;9.800;2023-11-19T09:52:00;9.90;99.90
20035;DHT22;10178;48.034;9.800;2023-11-19T09:54:26;10.10;99.90
20035;DHT22;10178;48.034;9.800;2023-11-19T09:56:51;10.00;99.90
20035;DHT22;10178;48.034;9.800;2023-11-19T09:59:17;10.20;99.90
20035;DHT22;10178;48.034;9.800;2023-11-19T10:01:50;10.20;99.90
20035;DHT22;10178;48.034;9.800;2023-11-19T10:04:21;10.40;99.90
20035;DHT22;10178;48.034;9.800;2023-11-19T10:06:49;10.30;99.90
20035;DHT22;10178;48.034;9.800;2023-11-19T10:09:21;10.20;99.90
20035;DHT22;10178;48.034;9.800;2023-11-19T10:11:55;10.40;99.90
20035;DHT22;10178;48.034;9.800;2023-11-19T10:14:26;10.30;99.90
20035;DHT22;10178;48.034;9.800;2023-11-19T10:16:54;10.40;99.90
20035;DHT22;10178;48.034;9.800;2023-11-19T10:19:21;10.40;99.90
20035;DHT22;10178;48.034;9.800;2023-11-19T10:21:47;10.70;99.90
20035;DHT22;10178;48.034;9.800;2023-11-19T10:24:12;10.60;99.90
20035;DHT22;10178;48.034;9.800;2023-11-19T10:26:40;10.80;99.90
20035;DHT22;10178;48.034;9.800;2023-11-19T10:29:12;10.50;99.90
20035;DHT22;10178;48.034;9.800;2023-11-19T10:31:41;10.70;99.90
20035;DHT22;10178;48.034;9.800;2023-11-19T10:34:30;10.80;99.90
20035;DHT22;10178;48.034;9.800;2023-11-19T10:36:56;10.80;99.90
20035;DHT22;10178;48.034;9.800;2023-11-19T10:39:22;10.80;99.90
20035;DHT22;10178;48.034;9.800;2023-11-19T10:41:49;10.90;99.90
20035;DHT22;10178;48.034;9.800;2023-11-19T10:44:34;10.90;99.90
20035;DHT22;10178;48.034;9.800;2023-11-19T10:47:06;10.90;99.90
20035;DHT22;10178;48.034;9.800;2023-11-19T10:49:34;11.30;99.90
20035;DHT22;10178;48.034;9.800;2023-11-19T10:52:05;11.40;99.90
20035;DHT22;10178;48.034;9.800;2023-11-19T10:54:34;11.60;99.90
20035;DHT22;10178;48.034;9.800;2023-11-19T10:57:01;11.60;99.90
20035;DHT22;10178;48.034;9.800;2023-11-19T10:59:31;11.60;99.90
20035;DHT22;10178;48.034;9.800;2023-11-19T11:02:03;11.70;99.90
20035;DHT22;10178;48.034;9.800;2023-11-19T11:04:33;11.80;99.90
20035;DHT22;10178;48.034;9.800;2023-11-19T11:07:00;11.90;99.90
20035;DHT22;10178;48.034;9.800;2023-11-19T11:09:27;11.70;99.90
20035;DHT22;10178;48.034;9.800;2023-11-19T11:11:54;11.90;99.90
20035;DHT22;10178;48.034;9.800;2023-11-19T11:14:21;11.90;99.90
20035;DHT22;10178;48.034;9.800;2023-11-19T11:16:53;11.80;99.90
20035;DHT22;10178;48.034;9.800;2023-11-19T11:19:19;11.90;99.90
20035;DHT22;10178;48.034;9.800;2023-11-19T11:21:52;11.90;99.90
20035;DHT22;10178;48.034;9.800;2023-11-19T11:32:33;11.90;99.90
20035;DHT22;10178;48.034;9.800;2023-11-19T11:37:39;11.80;99.90
20035;DHT22;10178;48.034;9.800;2023-11-19T11:40:17;11.90;99.90
20035;DHT22;10178;48.034;9.800;2023-11-19T11:42:44;11.90;99.90
20035;DHT22;10178;48.034;9.800;2023-11-19T11:45:14;11.80;99.90
20035;DHT22;10178;48.034;9.800;2023-11-19T11:50:22;12.00;99.90
20035;DHT22;10178;48.034;9.800;2023-11-19T11:55:27;12.00;99.90
20035;DHT22;10178;48.034;9.800;2023-11-19T11:57:56;12.00;99.90
20035;DHT22;10178;48.034;9.800;2023-11-19T12:00:26;11.90;99.90
20035;DHT22;10178;48.034;9.800;2023-11-19T12:02:51;12.00;99.90
20035;DHT22;10178;48.034;9.800;2023-11-19T12:05:17;11.90;99.90
20035;DHT22;10178;48.034;9.800;2023-11-19T12:07:54;12.00;99.90
20035;DHT22;10178;48.034;9.800;2023-11-19T12:10:20;12.10;99.90
20035;DHT22;10178;48.034;9.800;2023-11-19T12:12:47;12.10;99.90
20035;DHT22;10178;48.034;9.800;2023-11-19T12:15:13;12.20;99.90
20035;DHT22;10178;48.034;9.800;2023-11-19T12:17:47;12.30;99.90
20035;DHT22;10178;48.034;9.800;2023-11-19T12:20:19;12.40;99.90
20035;DHT22;10178;48.034;9.800;2023-11-19T12:22:47;12.50;99.90
20035;DHT22;10178;48.034;9.800;2023-11-19T12:25:15;12.50;99.90
20035;DHT22;10178;48.034;9.800;2023-11-19T12:27:53;12.50;99.90
20035;DHT22;10178;48.034;9.800;2023-11-19T12:30:23;12.50;99.90
20035;DHT22;10178;48.034;9.800;2023-11-19T12:32:50;12.50;99.90
20035;DHT22;10178;48.034;9.800;2023-11-19T12:35:16;12.40;99.90
20035;DHT22;10178;48.034;9.800;2023-11-19T12:37:47;12.40;99.90
20035;DHT22;10178;48.034;9.800;2023-11-19T12:42:48;12.40;99.90
20035;DHT22;10178;48.034;9.800;2023-11-19T12:45:14;12.40;99.90
20035;DHT22;10178;48.034;9.800;2023-11-19T12:47:42;12.40;99.90
20035;DHT22;10178;48.034;9.800;2023-11-19T12:50:08;12.40;99.90
20035;DHT22;10178;48.034;9.800;2023-11-19T12:52:35;12.40;99.90
20035;DHT22;10178;48.034;9.800;2023-11-19T12:55:03;12.40;99.90
20035;DHT22;10178;48.034;9.800;2023-11-19T12:57:42;12.40;99.90
20035;DHT22;10178;48.034;9.800;2023-11-19T13:00:18;12.30;99.90
20035;DHT22;10178;48.034;9.800;2023-11-19T13:02:49;12.40;99.90
20035;DHT22;10178;48.034;9.800;2023-11-19T13:05:31;12.30;99.90
20035;DHT22;10178;48.034;9.800;2023-11-19T13:08:06;12.20;99.90
20035;DHT22;10178;48.034;9.800;2023-11-19T13:10:33;12.10;99.90
20035;DHT22;10178;48.034;9.800;2023-11-19T13:13:03;12.10;99.90
20035;DHT22;10178;48.034;9.800;2023-11-19T13:15:29;12.10;99.90
20035;DHT22;10178;48.034;9.800;2023-11-19T13:17:55;12.10;99.90
20035;DHT22;10178;48.034;9.800;2023-11-19T13:20:22;12.10;99.90
20035;DHT22;10178;48.034;9.800;2023-11-19T13:22:57;12.10;99.90
20035;DHT22;10178;48.034;9.800;2023-11-19T13:25:23;12.20;99.90
20035;DHT22;10178;48.034;9.800;2023-11-19T13:27:49;12.20;99.90
20035;DHT22;10178;48.034;9.800;2023-11-19T13:30:15;12.30;99.90
20035;DHT22;10178;48.034;9.800;2023-11-19T13:32:41;12.40;99.90
20035;DHT22;10178;48.034;9.800;2023-11-19T13:35:09;12.30;99.90
20035;DHT22;10178;48.034;9.800;2023-11-19T13:37:34;12.40;99.90
20035;DHT22;10178;48.034;9.800;2023-11-19T13:40:00;12.30;99.90
20035;DHT22;10178;48.034;9.800;2023-11-19T13:42:26;12.30;99.90
20035;DHT22;10178;48.034;9.800;2023-11-19T13:44:52;12.30;99.90
20035;DHT22;10178;48.034;9.800;2023-11-19T13:47:18;12.20;99.90
20035;DHT22;10178;48.034;9.800;2023-11-19T13:49:44;12.10;99.90
20035;DHT22;10178;48.034;9.800;2023-11-19T13:52:10;12.10;99.90
20035;DHT22;10178;48.034;9.800;2023-11-19T13:54:37;12.00;99.90
20035;DHT22;10178;48.034;9.800;2023-11-19T13:57:03;12.00;99.90
20035;DHT22;10178;48.034;9.800;2023-11-19T13:59:32;12.10;99.90
20035;DHT22;10178;48.034;9.800;2023-11-19T14:01:58;12.10;99.90
20035;DHT22;10178;48.034;9.800;2023-11-19T14:04:24;12.00;99.90
20035;DHT22;10178;48.034;9.800;2023-11-19T14:06:50;12.10;99.90
20035;DHT22;10178;48.034;9.800;2023-11-19T14:09:16;12.10;99.90
20035;DHT22;10178;48.034;9.800;2023-11-19T14:11:48;12.10;99.90
20035;DHT22;10178;48.034;9.800;2023-11-19T14:14:16;12.00;99.90
20035;DHT22;10178;48.034;9.800;2023-11-19T14:16:42;12.00;99.90
20035;DHT22;10178;48.034;9.800;2023-11-19T14:19:08;11.90;99.90
20035;DHT22;10178;48.034;9.800;2023-11-19T14:21:33;11.90;99.90
20035;DHT22;10178;48.034;9.800;2023-11-19T14:23:59;11.90;99.90
20035;DHT22;10178;48.034;9.800;2023-11-19T14:26:25;11.90;99.90
20035;DHT22;10178;48.034;9.800;2023-11-19T14:28:50;11.90;99.90
20035;DHT22;10178;48.034;9.800;2023-11-19T14:31:16;11.90;99.90
20035;DHT22;10178;48.034;9.800;2023-11-19T14:33:41;11.90;99.90
20035;DHT22;10178;48.034;9.800;2023-11-19T14:36:07;11.90;99.90
20035;DHT22;10178;48.034;9.800;2023-11-19T14:38:33;11.80;99.90
20035;DHT22;10178;48.034;9.800;2023-11-19T14:40:59;11.80;99.90
20035;DHT22;10178;48.034;9.800;2023-11-19T14:43:25;11.90;99.90
20035;DHT22;10178;48.034;9.800;2023-11-19T14:45:57;11.90;99.90
20035;DHT22;10178;48.034;9.800;2023-11-19T14:48:23;11.90;99.90
20035;DHT22;10178;48.034;9.800;2023-11-19T14:50:49;12.00;99.90
20035;DHT22;10178;48.034;9.800;2023-11-19T14:53:16;11.90;99.90
20035;DHT22;10178;48.034;9.800;2023-11-19T14:55:44;11.80;99.90
20035;DHT22;10178;48.034;9.800;2023-11-19T14:58:10;11.90;99.90
20035;DHT22;10178;48.034;9.800;2023-11-19T15:00:35;11.90;99.90
20035;DHT22;10178;48.034;9.800;2023-11-19T15:03:01;11.80;99.90
20035;DHT22;10178;48.034;9.800;2023-11-19T15:05:27;11.80;99.90
20035;DHT22;10178;48.034;9.800;2023-11-19T15:07:54;11.80;99.90
20035;DHT22;10178;48.034;9.800;2023-11-19T15:10:21;11.70;99.90
20035;DHT22;10178;48.034;9.800;2023-11-19T15:12:46;11.70;99.90
20035;DHT22;10178;48.034;9.800;2023-11-19T15:15:12;11.60;99.90
20035;DHT22;10178;48.034;9.800;2023-11-19T15:17:41;11.60;99.90
20035;DHT22;10178;48.034;9.800;2023-11-19T15:20:07;11.60;99.90
20035;DHT22;10178;48.034;9.800;2023-11-19T15:22:33;11.50;99.90
20035;DHT22;10178;48.034;9.800;2023-11-19T15:24:59;11.50;99.90
20035;DHT22;10178;48.034;9.800;2023-11-19T15:27:25;11.50;99.90
20035;DHT22;10178;48.034;9.800;2023-11-19T15:29:50;11.50;99.90
20035;DHT22;10178;48.034;9.800;2023-11-19T15:32:16;11.50;99.90
20035;DHT22;10178;48.034;9.800;2023-11-19T15:34:41;11.40;99.90
20035;DHT22;10178;48.034;9.800;2023-11-19T15:37:08;11.40;99.90
20035;DHT22;10178;48.034;9.800;2023-11-19T15:39:33;11.40;99.90
20035;DHT22;10178;48.034;9.800;2023-11-19T15:42:01;11.40;99.90
20035;DHT22;10178;48.034;9.800;2023-11-19T15:44:27;11.30;99.90
20035;DHT22;10178;48.034;9.800;2023-11-19T15:46:54;11.30;99.90
20035;DHT22;10178;48.034;9.800;2023-11-19T15:49:20;11.20;99.90
20035;DHT22;10178;48.034;9.800;2023-11-19T15:51:45;11.30;99.90
20035;DHT22;10178;48.034;9.800;2023-11-19T15:54:11;11.20;99.90
20035;DHT22;10178;48.034;9.800;2023-11-19T15:56:37;11.20;99.90
20035;DHT22;10178;48.034;9.800;2023-11-19T15:59:12;11.10;99.90
20035;DHT22;10178;48.034;9.800;2023-11-19T16:01:37;11.10;99.90
20035;DHT22;10178;48.034;9.800;2023-11-19T16:04:04;11.00;99.90
20035;DHT22;10178;48.034;9.800;2023-11-19T16:06:30;11.00;99.90